Terminal Aerodrome Forecast
Issued by NWS

Home | Current Version | Previous Version | Text Only | Print | Product List | Glossary On
Versions: 1 2 3 4 5 6 7 8 9 10 11 12 13
000
FTUS44 KEPZ 010541
TAFLRU
TAF
KLRU 010541Z 0106/0206 19008KT P6SM FEW120
     FM011600 19015G21KT P6SM SCT070
     FM012100 18011G18KT P6SM BKN070
     FM020000 09008G14KT P6SM SCT080=

USA.gov is the U.S. government's official web portal to all federal, state and local government web resources and services.